Time;durP1;ratioP1;P1;durP2;ratioP2;P2;SDS_P1;SDS_P2;PMS_P1;PMS_P2;Temp;Humidity;BMP_temperature;BMP_pressure;BME280_temperature;BME280_humidity;BME280_pressure;Samples;Min_cycle;Max_cycle;Signal;HPM_P1;HPM_P2
2022/01/16 00:02:10;;;;;;;72.45;29.58;;;;;;;-141.50;100.00;63355.56;5026814;28;20057;-81
2022/01/16 00:04:34;;;;;;;65.50;28.17;;;;;;;-141.50;100.00;63355.56;5028192;28;20064;-80
2022/01/16 00:07:04;;;;;;;64.65;28.10;;;;;;;-141.50;100.00;63355.56;5026618;28;20063;-80
2022/01/16 00:09:31;;;;;;;64.28;27.17;;;;;;;-141.50;100.00;63355.56;5027774;28;20061;-80
2022/01/16 00:12:00;;;;;;;69.15;29.73;;;;;;;-141.50;100.00;63355.56;5026458;28;20057;-80
2022/01/16 00:14:29;;;;;;;70.82;28.80;;;;;;;-141.50;100.00;63355.56;5026512;28;20053;-80
2022/01/16 00:16:56;;;;;;;73.15;30.08;;;;;;;-141.50;100.00;63355.56;5027931;28;20112;-81
2022/01/16 00:19:23;;;;;;;69.90;30.35;;;;;;;-141.50;100.00;63355.56;5028836;28;20096;-81
2022/01/16 00:21:49;;;;;;;70.18;29.80;;;;;;;-141.50;100.00;63355.56;5026516;28;20560;-80
2022/01/16 00:24:16;;;;;;;72.22;29.80;;;;;;;-141.50;100.00;63355.56;5028225;28;20053;-81
2022/01/16 00:26:43;;;;;;;73.68;30.27;;;;;;;-141.50;100.00;63355.56;5027291;28;20053;-80
2022/01/16 00:29:11;;;;;;;67.47;30.20;;;;;;;-141.50;100.00;63355.56;5026838;28;20049;-82
2022/01/16 00:31:39;;;;;;;60.88;27.70;;;;;;;-141.50;100.00;63355.56;5026709;28;20053;-78
2022/01/16 00:34:07;;;;;;;78.18;30.92;;;;;;;-141.50;100.00;63355.56;5027375;28;20140;-80
2022/01/16 00:36:35;;;;;;;73.32;30.63;;;;;;;-141.50;100.00;63355.56;5025587;28;20080;-80
2022/01/16 00:39:03;;;;;;;68.80;29.05;;;;;;;-141.50;100.00;63355.56;5027138;28;20084;-80
2022/01/16 00:41:32;;;;;;;66.65;30.65;;;;;;;-141.50;100.00;63355.56;5030505;28;20106;-80
2022/01/16 00:43:58;;;;;;;74.57;30.35;;;;;;;-141.50;100.00;63355.56;5051388;28;20071;-82
2022/01/16 00:46:25;;;;;;;72.07;31.67;;;;;;;-141.50;100.00;63355.56;5051161;28;20122;-80
2022/01/16 00:48:51;;;;;;;71.55;31.38;;;;;;;-141.50;100.00;63355.56;5062501;28;20049;-80
2022/01/16 00:51:18;;;;;;;75.25;30.00;;;;;;;-141.50;100.00;63355.56;5063480;28;20049;-80
2022/01/16 00:53:44;;;;;;;76.13;31.30;;;;;;;-141.50;100.00;63355.56;5056735;28;20494;-81
2022/01/16 00:56:13;;;;;;;72.93;30.42;;;;;;;-141.50;100.00;63355.56;5048897;28;20080;-80
2022/01/16 00:58:41;;;;;;;68.72;29.52;;;;;;;-141.50;100.00;63355.56;5053664;28;20049;-79
2022/01/16 01:01:08;;;;;;;76.10;31.05;;;;;;;-141.50;100.00;63355.56;5052149;28;20057;-79
2022/01/16 01:03:36;;;;;;;68.68;29.88;;;;;;;-141.50;100.00;63355.56;5050626;28;20536;-79
2022/01/16 01:06:03;;;;;;;67.18;29.52;;;;;;;-141.50;100.00;63355.56;5048541;28;20111;-79
2022/01/16 01:08:31;;;;;;;68.10;29.63;;;;;;;-141.50;100.00;63355.56;5050965;28;20128;-81
2022/01/16 01:11:02;;;;;;;64.15;28.83;;;;;;;-141.50;100.00;63355.56;5053410;28;20049;-81
2022/01/16 01:16:04;;;;;;;68.32;30.65;;;;;;;-141.50;100.00;63355.56;5055256;28;20098;-79
2022/01/16 01:18:33;;;;;;;64.40;28.38;;;;;;;-141.50;100.00;63355.56;5053841;28;20044;-80
2022/01/16 01:21:03;;;;;;;73.03;29.52;;;;;;;-141.50;100.00;63355.56;5055066;28;20126;-80
2022/01/16 01:23:30;;;;;;;74.10;30.65;;;;;;;-141.50;100.00;63355.56;5059936;28;20055;-79
2022/01/16 01:25:57;;;;;;;60.80;26.35;;;;;;;-141.50;100.00;63355.56;5052910;28;20049;-80
2022/01/16 01:28:23;;;;;;;64.15;28.15;;;;;;;-141.50;100.00;63355.56;5052741;28;20108;-79
2022/01/16 01:30:50;;;;;;;63.72;27.08;;;;;;;-141.50;100.00;63355.56;5054669;28;20088;-80
2022/01/16 01:33:19;;;;;;;57.03;24.55;;;;;;;-141.50;100.00;63355.56;5052084;28;20350;-81
2022/01/16 01:35:46;;;;;;;63.35;25.05;;;;;;;-141.50;100.00;63355.56;5053823;28;20099;-80
2022/01/16 01:38:17;;;;;;;59.42;25.95;;;;;;;-141.50;100.00;63355.56;5053843;28;20049;-80
2022/01/16 01:40:47;;;;;;;62.33;24.75;;;;;;;-141.50;100.00;63355.56;5053958;28;20049;-79
2022/01/16 01:51:17;;;;;;;62.38;26.95;;;;;;;-141.50;100.00;63355.56;5052967;28;20057;-80
2022/01/16 01:53:46;;;;;;;68.63;28.27;;;;;;;-141.50;100.00;63355.56;5049823;28;20059;-80
2022/01/16 01:56:17;;;;;;;61.63;26.95;;;;;;;-141.50;100.00;63355.56;5050070;28;20111;-80
2022/01/16 01:58:45;;;;;;;66.53;29.75;;;;;;;-141.50;100.00;63355.56;5057625;28;20098;-83
2022/01/16 02:01:11;;;;;;;67.03;26.23;;;;;;;-141.50;100.00;63355.56;5067701;28;20059;-81
2022/01/16 02:06:11;;;;;;;64.40;26.77;;;;;;;-141.50;100.00;63355.56;5068064;28;20045;-81
2022/01/16 02:08:38;;;;;;;65.82;26.48;;;;;;;-141.50;100.00;63355.56;5055301;28;20106;-80
2022/01/16 02:11:04;;;;;;;57.65;24.45;;;;;;;-141.50;100.00;63355.56;5053293;28;20790;-80
2022/01/16 02:13:35;;;;;;;60.78;25.15;;;;;;;-141.50;100.00;63355.56;5054289;28;20056;-81
2022/01/16 02:35:09;;;;;;;42.38;17.83;;;;;;;-141.50;100.00;63355.56;5051925;28;20318;-80
2022/01/16 02:37:36;;;;;;;62.33;23.45;;;;;;;-141.50;100.00;63355.56;5051381;28;20083;-81
2022/01/16 02:40:11;;;;;;;46.60;22.27;;;;;;;-141.50;100.00;63355.56;5052794;28;20053;-80
2022/01/16 02:42:41;;;;;;;54.83;22.98;;;;;;;-141.50;100.00;63355.56;5049993;28;20045;-80
2022/01/16 02:45:16;;;;;;;48.42;18.98;;;;;;;-141.50;100.00;63355.56;5053128;28;20103;-79
2022/01/16 02:47:43;;;;;;;48.25;20.15;;;;;;;-141.50;100.00;63355.56;5053380;28;20427;-79
2022/01/16 02:50:21;;;;;;;46.65;18.10;;;;;;;-141.50;100.00;63355.56;5050855;28;20041;-81
2022/01/16 02:52:48;;;;;;;48.97;20.55;;;;;;;-141.50;100.00;63355.56;5053704;28;20056;-80
2022/01/16 02:55:16;;;;;;;45.28;19.73;;;;;;;-141.50;100.00;63355.56;5052162;28;20098;-80
2022/01/16 02:57:43;;;;;;;51.03;22.27;;;;;;;-141.50;100.00;63355.56;5055383;28;20314;-80
2022/01/16 03:00:10;;;;;;;47.22;19.73;;;;;;;-141.50;100.00;63355.56;5054998;28;20052;-79
2022/01/16 03:02:36;;;;;;;43.58;19.25;;;;;;;-141.50;100.00;63355.56;5053104;28;20482;-80
2022/01/16 03:05:04;;;;;;;41.25;18.38;;;;;;;-141.50;100.00;63355.56;5034950;28;20053;-80
2022/01/16 03:07:31;;;;;;;45.72;18.90;;;;;;;-141.50;100.00;63355.56;5051487;28;20167;-80
2022/01/16 03:12:38;;;;;;;46.38;18.50;;;;;;;-141.50;100.00;63355.56;5053454;28;20044;-80
2022/01/16 03:15:06;;;;;;;39.65;18.55;;;;;;;-141.50;100.00;63355.56;5052957;28;20080;-80
2022/01/16 03:17:39;;;;;;;41.85;18.65;;;;;;;-141.50;100.00;63355.56;5051066;28;20044;-80
2022/01/16 03:22:52;;;;;;;44.40;19.15;;;;;;;-141.50;100.00;63355.56;5052280;28;20084;-79
2022/01/16 03:25:18;;;;;;;41.78;19.05;;;;;;;-141.50;100.00;63355.56;5051730;28;20076;-78
2022/01/16 03:27:45;;;;;;;49.67;19.83;;;;;;;-141.50;100.00;63355.56;5051328;28;20080;-80
2022/01/16 03:30:12;;;;;;;50.20;20.98;;;;;;;-141.50;100.00;63355.56;5055561;28;20102;-80
2022/01/16 03:32:38;;;;;;;53.20;20.77;;;;;;;-141.50;100.00;63355.56;5054005;28;20045;-80
2022/01/16 03:35:05;;;;;;;54.22;22.27;;;;;;;-141.50;100.00;63355.56;5053200;28;20494;-79
2022/01/16 03:37:32;;;;;;;48.40;22.55;;;;;;;-141.50;100.00;63355.56;5054581;28;20048;-81
2022/01/16 03:39:58;;;;;;;48.35;22.42;;;;;;;-141.50;100.00;63355.56;5052379;28;20044;-80
2022/01/16 03:42:29;;;;;;;50.60;23.63;;;;;;;-141.50;100.00;63355.56;5052963;28;20052;-80
2022/01/16 03:44:55;;;;;;;58.92;24.02;;;;;;;-141.50;100.00;63355.56;5050832;28;20048;-79
2022/01/16 03:47:22;;;;;;;56.13;24.75;;;;;;;-141.50;100.00;63355.56;5051371;28;20080;-80
2022/01/16 03:49:49;;;;;;;56.10;24.60;;;;;;;-141.50;100.00;63355.56;5049740;28;20076;-81
2022/01/16 03:52:15;;;;;;;62.58;24.80;;;;;;;-141.50;100.00;63355.56;5056313;28;20460;-80
2022/01/16 03:54:42;;;;;;;61.80;26.05;;;;;;;-141.50;100.00;63355.56;5055661;28;20053;-80
2022/01/16 03:57:08;;;;;;;62.88;25.10;;;;;;;-141.50;100.00;63355.56;5050655;28;20489;-80
2022/01/16 03:59:35;;;;;;;58.80;24.92;;;;;;;-141.50;100.00;63355.56;5050814;28;20067;-80
2022/01/16 04:02:02;;;;;;;59.53;24.27;;;;;;;-141.50;100.00;63355.56;5051372;28;20465;-80
2022/01/16 04:04:28;;;;;;;58.03;25.30;;;;;;;-141.50;100.00;63355.56;5052651;28;20057;-80
2022/01/16 04:06:55;;;;;;;52.90;23.80;;;;;;;-141.50;100.00;63355.56;5051456;28;20091;-79
2022/01/16 04:09:22;;;;;;;58.63;24.95;;;;;;;-141.50;100.00;63355.56;5050230;28;20045;-79
2022/01/16 04:11:53;;;;;;;57.03;24.25;;;;;;;-141.50;100.00;63355.56;5051271;28;20130;-79
2022/01/16 04:15:31;;;;;;;55.58;24.17;;;;;;;-141.50;100.00;63355.56;5051708;28;20083;-80
2022/01/16 04:17:11;;;;;;;53.58;24.00;;;;;;;-141.50;100.00;63355.56;5053005;28;20068;-80
2022/01/16 04:19:37;;;;;;;52.08;22.98;;;;;;;-141.50;100.00;63355.56;5055863;28;20052;-80
2022/01/16 04:22:04;;;;;;;53.40;24.42;;;;;;;-141.50;100.00;63355.56;5050811;28;20083;-80
2022/01/16 04:24:30;;;;;;;54.20;24.45;;;;;;;-141.50;100.00;63355.56;5052578;28;20078;-79
2022/01/16 04:26:57;;;;;;;52.05;23.23;;;;;;;-141.50;100.00;63355.56;5051083;28;20114;-80
2022/01/16 04:29:23;;;;;;;50.75;23.70;;;;;;;-141.50;100.00;63355.56;5053341;28;20425;-81
2022/01/16 04:31:50;;;;;;;53.95;23.38;;;;;;;-141.50;100.00;63355.56;5051644;28;20057;-78
2022/01/16 04:34:16;;;;;;;48.85;22.00;;;;;;;-141.50;100.00;63355.56;5052949;28;20060;-80
2022/01/16 04:36:43;;;;;;;45.08;19.42;;;;;;;-141.50;100.00;63355.56;5051117;28;20045;-80
2022/01/16 04:39:16;;;;;;;51.72;19.02;;;;;;;-141.50;100.00;63355.56;5051393;28;20091;-80
2022/01/16 04:44:29;;;;;;;31.70;15.07;;;;;;;-141.50;100.00;63355.56;5073924;28;20072;-80
2022/01/16 04:46:57;;;;;;;36.35;14.77;;;;;;;-141.50;100.00;63355.56;5065567;28;20040;-80
2022/01/16 04:49:23;;;;;;;33.70;15.43;;;;;;;-141.50;100.00;63355.56;5054434;28;20080;-79
2022/01/16 04:51:50;;;;;;;36.13;16.30;;;;;;;-141.50;100.00;63355.56;5053163;28;20069;-79
2022/01/16 04:54:16;;;;;;;40.25;16.50;;;;;;;-141.50;100.00;63355.56;5055112;28;20088;-81
2022/01/16 04:56:43;;;;;;;34.70;15.82;;;;;;;-141.50;100.00;63355.56;5055401;28;20057;-81
2022/01/16 04:59:09;;;;;;;36.15;15.48;;;;;;;-141.50;100.00;63355.56;5058888;28;20049;-79
2022/01/16 05:01:36;;;;;;;35.97;15.27;;;;;;;-141.50;100.00;63355.56;5042330;28;20449;-79
2022/01/16 05:04:03;;;;;;;35.50;16.08;;;;;;;-141.50;100.00;63355.56;5033996;28;20316;-80
2022/01/16 05:06:29;;;;;;;37.80;15.48;;;;;;;-141.50;100.00;63355.56;5036672;28;20079;-80
2022/01/16 05:08:56;;;;;;;33.75;14.93;;;;;;;-141.50;100.00;63355.56;5037570;28;20411;-78
2022/01/16 05:11:25;;;;;;;40.05;15.52;;;;;;;-141.50;100.00;63355.56;5035333;28;20132;-78
2022/01/16 05:16:37;;;;;;;38.50;15.68;;;;;;;-141.50;100.00;63355.56;5035684;28;20053;-81
2022/01/16 05:19:12;;;;;;;39.40;15.57;;;;;;;-141.50;100.00;63355.56;5034236;28;20108;-80
2022/01/16 05:21:40;;;;;;;;;;;;;;;-141.50;100.00;63355.56;5034227;28;20111;-79
2022/01/16 05:24:11;;;;;;;32.85;13.98;;;;;;;-141.50;100.00;63355.56;5035477;28;20384;-79
2022/01/16 05:26:40;;;;;;;32.78;15.13;;;;;;;-141.50;100.00;63355.56;5034116;28;20110;-79
2022/01/16 05:29:07;;;;;;;38.88;15.93;;;;;;;-141.50;100.00;63355.56;5035653;28;20099;-79
2022/01/16 05:31:34;;;;;;;34.10;15.40;;;;;;;-141.50;100.00;63355.56;5035792;28;20056;-81
2022/01/16 05:34:00;;;;;;;36.28;14.95;;;;;;;-141.50;100.00;63355.56;5035715;28;20049;-80
2022/01/16 05:36:27;;;;;;;32.03;14.15;;;;;;;-141.50;100.00;63355.56;5032184;28;20443;-79
2022/01/16 05:38:53;;;;;;;34.35;14.38;;;;;;;-141.50;100.00;63355.56;5036665;28;20048;-80
2022/01/16 05:41:21;;;;;;;30.55;13.70;;;;;;;-141.50;100.00;63355.56;5034962;28;20053;-80
2022/01/16 05:43:49;;;;;;;36.78;14.32;;;;;;;-141.50;100.00;63355.56;5036001;28;20049;-81
2022/01/16 05:46:16;;;;;;;29.83;14.30;;;;;;;-141.50;100.00;63355.56;5033803;28;20140;-81
2022/01/16 05:48:43;;;;;;;39.95;16.83;;;;;;;-141.50;100.00;63355.56;5033327;28;20042;-79
2022/01/16 05:51:09;;;;;;;36.20;15.57;;;;;;;-141.50;100.00;63355.56;5035188;28;20077;-79
2022/01/16 05:53:37;;;;;;;32.33;14.15;;;;;;;-141.50;100.00;63355.56;5034576;28;20156;-79
2022/01/16 05:56:05;;;;;;;31.73;13.88;;;;;;;-141.50;100.00;63355.56;5032934;28;20053;-79
2022/01/16 05:58:31;;;;;;;32.05;13.10;;;;;;;-141.50;100.00;63355.56;5034299;28;20049;-79
2022/01/16 06:00:58;;;;;;;30.50;13.82;;;;;;;-141.50;100.00;63355.56;5032400;28;20053;-80
2022/01/16 06:03:25;;;;;;;36.40;14.95;;;;;;;-141.50;100.00;63355.56;5032152;28;20049;-80
2022/01/16 06:05:51;;;;;;;28.75;13.73;;;;;;;-141.50;100.00;63355.56;5032489;28;20088;-79
2022/01/16 06:08:18;;;;;;;28.65;13.07;;;;;;;-141.50;100.00;63355.56;5032468;28;20441;-80
2022/01/16 06:10:44;;;;;;;31.20;13.73;;;;;;;-141.50;100.00;63355.56;5034965;28;20512;-80
2022/01/16 06:13:11;;;;;;;37.72;15.45;;;;;;;-141.50;100.00;63355.56;5032931;28;20049;-80
2022/01/16 06:15:40;;;;;;;36.45;15.65;;;;;;;-141.50;100.00;63355.56;5038378;28;20192;-79
2022/01/16 06:18:07;;;;;;;41.40;15.43;;;;;;;-141.50;100.00;63355.56;5035621;28;20045;-80
2022/01/16 06:20:35;;;;;;;34.15;14.27;;;;;;;-141.50;100.00;63355.56;5038728;28;20076;-78
2022/01/16 06:23:12;;;;;;;33.90;14.75;;;;;;;-141.50;100.00;63355.56;5054443;28;20056;-80
2022/01/16 06:25:38;;;;;;;36.15;14.85;;;;;;;-141.50;100.00;63355.56;5050658;28;20057;-80
2022/01/16 06:28:05;;;;;;;37.30;14.55;;;;;;;-141.50;100.00;63355.56;5044921;28;20044;-80
2022/01/16 06:30:32;;;;;;;34.58;13.90;;;;;;;-141.50;100.00;63355.56;5036095;28;20049;-80
2022/01/16 06:32:58;;;;;;;36.83;15.00;;;;;;;-141.50;100.00;63355.56;5056534;28;20460;-78
2022/01/16 06:35:25;;;;;;;33.55;13.43;;;;;;;-141.50;100.00;63355.56;5054637;28;20087;-81
2022/01/16 06:37:51;;;;;;;31.85;13.18;;;;;;;-141.50;100.00;63355.56;5052366;28;20045;-81
2022/01/16 06:40:18;;;;;;;29.45;12.20;;;;;;;-141.50;100.00;63355.56;5059919;28;20087;-79
2022/01/16 06:42:44;;;;;;;24.02;11.15;;;;;;;-141.50;100.00;63355.56;5037631;28;20063;-79
2022/01/16 06:45:11;;;;;;;26.13;10.60;;;;;;;-141.50;100.00;63355.56;5053026;28;20045;-80
2022/01/16 06:47:38;;;;;;;24.88;10.55;;;;;;;-141.50;100.00;63355.56;5054984;28;20072;-81
2022/01/16 06:50:07;;;;;;;25.95;11.82;;;;;;;-141.50;100.00;63355.56;5054366;28;20049;-79
2022/01/16 06:52:33;;;;;;;25.35;11.00;;;;;;;-141.50;100.00;63355.56;5053312;28;20057;-79
2022/01/16 06:55:00;;;;;;;26.60;11.07;;;;;;;-141.50;100.00;63355.56;5054081;28;20060;-80
2022/01/16 06:57:26;;;;;;;24.52;11.43;;;;;;;-141.50;100.00;63355.56;5054327;28;20079;-81
2022/01/16 06:59:53;;;;;;;25.20;11.13;;;;;;;-141.50;100.00;63355.56;5053716;28;20122;-80
2022/01/16 07:02:19;;;;;;;23.70;11.02;;;;;;;-141.50;100.00;63355.56;5056084;28;20053;-79
2022/01/16 07:04:47;;;;;;;22.08;9.63;;;;;;;-141.50;100.00;63355.56;5056836;28;20169;-79
2022/01/16 07:07:14;;;;;;;21.70;9.85;;;;;;;-141.50;100.00;63355.56;5056678;28;20065;-79
2022/01/16 07:09:44;;;;;;;20.90;9.77;;;;;;;-141.50;100.00;63355.56;5057966;28;20071;-81
2022/01/16 07:12:11;;;;;;;23.58;9.73;;;;;;;-141.50;100.00;63355.56;5057218;28;20049;-80
2022/01/16 07:14:38;;;;;;;22.45;10.05;;;;;;;-141.50;100.00;63355.56;5057664;28;20049;-80
2022/01/16 07:17:05;;;;;;;21.77;10.02;;;;;;;-141.50;100.00;63355.56;5053136;28;20482;-81
2022/01/16 07:19:33;;;;;;;20.80;9.70;;;;;;;-141.50;100.00;63355.56;5054369;28;20045;-80
2022/01/16 07:21:59;;;;;;;25.00;10.45;;;;;;;-141.50;100.00;63355.56;5051236;28;20049;-81
2022/01/16 07:24:26;;;;;;;22.50;10.50;;;;;;;-141.50;100.00;63355.56;5054013;28;20052;-81
2022/01/16 07:26:54;;;;;;;25.95;10.75;;;;;;;-141.50;100.00;63355.56;5055016;28;20110;-80
2022/01/16 07:29:21;;;;;;;23.42;10.75;;;;;;;-141.50;100.00;63355.56;5057325;28;20067;-81
2022/01/16 07:31:47;;;;;;;22.08;9.73;;;;;;;-141.50;100.00;63355.56;5053856;28;20110;-81
2022/01/16 07:34:14;;;;;;;25.10;10.38;;;;;;;-141.50;100.00;63355.56;5050290;28;20113;-81
2022/01/16 07:36:40;;;;;;;23.20;10.48;;;;;;;-141.50;100.00;63355.56;5055083;28;20045;-81
2022/01/16 07:39:07;;;;;;;22.23;10.98;;;;;;;-141.50;100.00;63355.56;5056897;28;20075;-81
2022/01/16 07:41:34;;;;;;;24.35;10.50;;;;;;;-141.50;100.00;63355.56;5059885;28;20053;-81
2022/01/16 07:44:01;;;;;;;23.15;10.88;;;;;;;-141.50;100.00;63355.56;5060367;28;20102;-83
2022/01/16 07:46:28;;;;;;;22.45;10.85;;;;;;;-141.50;100.00;63355.56;5054679;28;20091;-80
2022/01/16 07:48:55;;;;;;;27.63;11.35;;;;;;;-141.50;100.00;63355.56;5045578;28;20049;-80
2022/01/16 07:51:24;;;;;;;24.73;11.15;;;;;;;-141.50;100.00;63355.56;5043294;28;20054;-81
2022/01/16 07:53:55;;;;;;;20.98;9.82;;;;;;;-141.50;100.00;63355.56;5039780;28;20095;-80
2022/01/16 07:56:22;;;;;;;22.80;10.32;;;;;;;-141.50;100.00;63355.56;5048801;28;20049;-79
2022/01/16 07:58:51;;;;;;;22.80;10.38;;;;;;;-141.50;100.00;63355.56;5050514;28;20079;-79
2022/01/16 08:01:17;;;;;;;19.92;9.57;;;;;;;-141.50;100.00;63355.56;5049683;28;20060;-80
2022/01/16 08:03:47;;;;;;;20.13;9.80;;;;;;;-141.50;100.00;63355.56;5055249;28;20049;-84
2022/01/16 08:06:16;;;;;;;21.92;9.95;;;;;;;-141.50;100.00;63355.56;5053253;28;20478;-81
2022/01/16 08:08:42;;;;;;;20.88;9.43;;;;;;;-141.50;100.00;63355.56;5053100;28;20041;-81
2022/01/16 08:11:09;;;;;;;23.20;10.35;;;;;;;-141.50;100.00;63355.56;5050005;28;20049;-82
2022/01/16 08:13:36;;;;;;;21.73;9.43;;;;;;;-141.50;100.00;63355.56;5040508;28;20077;-82
2022/01/16 08:16:05;;;;;;;17.65;9.20;;;;;;;-141.50;100.00;63355.56;5055635;28;20114;-83
2022/01/16 08:18:32;;;;;;;20.63;9.68;;;;;;;-141.50;100.00;63355.56;5055993;28;20118;-82
2022/01/16 08:20:59;;;;;;;21.92;9.15;;;;;;;-141.50;100.00;63355.56;5042568;28;20058;-83
2022/01/16 08:23:25;;;;;;;17.88;8.93;;;;;;;-141.50;100.00;63355.56;5032022;28;20049;-83
2022/01/16 08:25:52;;;;;;;17.17;8.45;;;;;;;-141.50;100.00;63355.56;5043008;28;20053;-82
2022/01/16 08:28:19;;;;;;;18.05;9.07;;;;;;;-141.50;100.00;63355.56;5051790;28;20056;-83
2022/01/16 08:30:46;;;;;;;17.13;8.18;;;;;;;-141.50;100.00;63355.56;5042576;28;20060;-82
2022/01/16 08:33:12;;;;;;;17.08;7.97;;;;;;;-141.50;100.00;63355.56;5037824;28;20074;-81
2022/01/16 08:35:39;;;;;;;17.52;8.10;;;;;;;-141.50;100.00;63355.56;5041237;28;20045;-82
2022/01/16 08:38:05;;;;;;;18.38;8.18;;;;;;;-141.50;100.00;63355.56;5049696;28;20080;-82
2022/01/16 08:40:35;;;;;;;16.75;8.30;;;;;;;-141.50;100.00;63355.56;5051248;28;20068;-83
2022/01/16 08:43:08;;;;;;;15.65;7.80;;;;;;;-141.50;100.00;63355.56;5033202;28;20483;-82
2022/01/16 08:45:37;;;;;;;15.02;7.60;;;;;;;-141.50;100.00;63355.56;5034229;28;20045;-83
2022/01/16 08:48:05;;;;;;;16.75;7.63;;;;;;;-141.50;100.00;63355.56;5034751;28;20045;-86
2022/01/16 08:50:33;;;;;;;15.60;7.30;;;;;;;-141.50;100.00;63355.56;5032834;28;20049;-83
2022/01/16 08:53:00;;;;;;;15.82;7.90;;;;;;;-141.50;100.00;63355.56;5033596;28;20057;-81
2022/01/16 08:55:26;;;;;;;15.55;7.80;;;;;;;-141.50;100.00;63355.56;5038324;28;20497;-81
2022/01/16 08:57:53;;;;;;;14.90;7.82;;;;;;;-141.50;100.00;63355.56;5037584;28;20052;-82
2022/01/16 09:00:23;;;;;;;15.93;8.40;;;;;;;-141.50;100.00;63355.56;5035806;28;20485;-82
2022/01/16 09:02:53;;;;;;;17.30;8.30;;;;;;;-141.50;100.00;63355.56;5037304;28;20057;-80
2022/01/16 09:05:20;;;;;;;16.35;7.80;;;;;;;-141.50;100.00;63355.56;5031594;28;20103;-81
2022/01/16 09:07:46;;;;;;;16.75;8.20;;;;;;;-141.50;100.00;63355.56;5028893;28;20099;-83
2022/01/16 09:10:13;;;;;;;16.15;7.57;;;;;;;-141.50;100.00;63355.56;5029076;28;20057;-80
2022/01/16 09:12:40;;;;;;;18.02;8.80;;;;;;;-141.50;100.00;63355.56;5028928;28;20065;-82
2022/01/16 09:15:08;;;;;;;17.25;8.25;;;;;;;-141.50;100.00;63355.56;5031081;28;20058;-81
2022/01/16 09:17:35;;;;;;;19.10;8.52;;;;;;;-141.50;100.00;63355.56;5028495;28;20053;-82
2022/01/16 09:20:03;;;;;;;18.52;8.25;;;;;;;-141.50;100.00;63355.56;5031046;28;20448;-82
2022/01/16 09:22:30;;;;;;;16.30;8.32;;;;;;;-141.50;100.00;63355.56;5033874;28;20057;-83
2022/01/16 09:24:56;;;;;;;17.30;8.30;;;;;;;-141.50;100.00;63355.56;5029085;28;20053;-81
2022/01/16 09:27:23;;;;;;;17.15;8.45;;;;;;;-141.50;100.00;63355.56;5032787;28;20052;-82
2022/01/16 09:29:50;;;;;;;18.27;8.70;;;;;;;-141.50;100.00;63355.56;5052017;28;20079;-83
2022/01/16 09:32:17;;;;;;;18.42;8.52;;;;;;;-141.50;100.00;63355.56;5054597;28;20525;-83
2022/01/16 09:34:43;;;;;;;17.63;8.98;;;;;;;-141.50;100.00;63355.56;5056649;28;20052;-82
2022/01/16 09:37:10;;;;;;;19.10;9.35;;;;;;;-141.50;100.00;63355.56;5061877;28;20053;-81
2022/01/16 09:39:38;;;;;;;16.85;8.63;;;;;;;-141.50;100.00;63355.56;5063736;28;20089;-82
2022/01/16 09:42:06;;;;;;;17.40;8.77;;;;;;;-141.50;100.00;63355.56;5066787;28;20029;-82
2022/01/16 09:44:40;;;;;;;19.75;9.77;;;;;;;-141.50;100.00;63355.56;5061054;28;20112;-82
2022/01/16 09:47:09;;;;;;;20.08;9.15;;;;;;;-141.50;100.00;63355.56;5043749;28;20045;-81
2022/01/16 09:49:36;;;;;;;19.67;9.30;;;;;;;-141.50;100.00;63355.56;5047717;28;20067;-82
2022/01/16 10:02:09;;;;;;;22.55;10.07;;;;;;;-141.50;100.00;63355.56;5004025;28;20061;-81
2022/01/16 10:04:41;;;;;;;22.10;9.77;;;;;;;-141.50;100.00;63355.56;5021219;28;20084;-83
2022/01/16 10:07:09;;;;;;;24.17;10.05;;;;;;;-141.50;100.00;63355.56;5033481;28;20085;-82
2022/01/16 10:09:37;;;;;;;24.92;10.23;;;;;;;-141.50;100.00;63355.56;5011634;28;20179;-81
2022/01/16 10:12:13;;;;;;;24.55;10.85;;;;;;;-141.50;100.00;63355.56;5022824;28;20073;-81
2022/01/16 10:14:48;;;;;;;22.30;11.05;;;;;;;-141.50;100.00;63355.56;5004738;28;20053;-80
2022/01/16 10:17:23;;;;;;;24.35;11.18;;;;;;;-141.50;100.00;63355.56;5002671;28;20054;-81
2022/01/16 10:20:03;;;;;;;26.27;10.88;;;;;;;-141.50;100.00;63355.56;5000015;28;20041;-81
2022/01/16 10:22:43;;;;;;;24.63;10.07;;;;;;;-141.50;100.00;63355.56;5012317;28;20068;-79
2022/01/16 10:25:11;;;;;;;20.00;9.27;;;;;;;-141.50;100.00;63355.56;5004248;28;20420;-80
2022/01/16 10:27:40;;;;;;;17.92;8.63;;;;;;;-141.50;100.00;63355.56;4998915;28;20090;-83
2022/01/16 10:30:12;;;;;;;19.35;8.57;;;;;;;-141.50;100.00;63355.56;5017099;28;20085;-81
2022/01/16 10:32:41;;;;;;;19.85;9.15;;;;;;;-141.50;100.00;63355.56;5017588;28;20050;-82
2022/01/16 10:35:20;;;;;;;20.13;8.40;;;;;;;-141.50;100.00;63355.56;5001869;28;20057;-81
2022/01/16 10:37:52;;;;;;;17.58;7.85;;;;;;;-141.50;100.00;63355.56;4994516;28;20146;-81
2022/01/16 10:40:34;;;;;;;19.58;8.88;;;;;;;-141.50;100.00;63355.56;5011744;28;20576;-79
2022/01/16 10:43:05;;;;;;;21.67;8.60;;;;;;;-141.50;100.00;63355.56;5011383;28;20049;-77
2022/01/16 10:45:33;;;;;;;19.92;8.85;;;;;;;-141.50;100.00;63355.56;5011268;28;20046;-78
2022/01/16 10:48:02;;;;;;;19.55;9.10;;;;;;;-141.50;100.00;63355.56;5000850;28;20617;-80
2022/01/16 10:50:42;;;;;;;20.27;9.70;;;;;;;-141.50;100.00;63355.56;5010501;28;20136;-82
2022/01/16 10:53:09;;;;;;;23.83;9.60;;;;;;;-141.50;100.00;63355.56;4996830;28;20115;-76
2022/01/16 10:55:39;;;;;;;20.60;10.10;;;;;;;-141.50;100.00;63355.56;5017280;28;20088;-81
2022/01/16 10:58:09;;;;;;;20.60;9.95;;;;;;;-141.50;100.00;63355.56;5020846;28;20356;-77
2022/01/16 11:00:37;;;;;;;18.92;8.98;;;;;;;-141.50;100.00;63355.56;5021430;28;20054;-78
2022/01/16 11:03:06;;;;;;;15.50;7.40;;;;;;;-141.50;100.00;63355.56;5021406;28;20104;-80
2022/01/16 11:05:40;;;;;;;16.42;6.85;;;;;;;-141.50;100.00;63355.56;5017328;28;20053;-78
2022/01/16 11:08:13;;;;;;;15.35;6.85;;;;;;;-141.50;100.00;63355.56;5026851;28;20080;-79
2022/01/16 11:10:43;;;;;;;15.25;6.22;;;;;;;-141.50;100.00;63355.56;5016909;28;20085;-82
2022/01/16 11:13:19;;;;;;;16.60;6.47;;;;;;;-141.50;100.00;63355.56;5018321;28;20049;-85
2022/01/16 11:15:48;;;;;;;14.10;5.68;;;;;;;-141.50;100.00;63355.56;5017345;28;20641;-83
2022/01/16 11:18:16;;;;;;;13.15;5.90;;;;;;;-141.50;100.00;63355.56;5000035;28;20060;-84
2022/01/16 11:20:52;;;;;;;14.73;5.88;;;;;;;-141.50;100.00;63355.56;4999590;28;20049;-82
2022/01/16 11:26:05;;;;;;;16.05;5.90;;;;;;;-141.50;100.00;63355.56;5018770;28;20116;-83
2022/01/16 11:28:33;;;;;;;17.10;6.53;;;;;;;-141.50;100.00;63355.56;5019242;28;20057;-82
2022/01/16 11:31:02;;;;;;;16.33;7.00;;;;;;;-141.50;100.00;63355.56;5013079;28;20080;-84
2022/01/16 11:33:30;;;;;;;16.73;6.18;;;;;;;-141.50;100.00;63355.56;5033661;28;20057;-83
2022/01/16 11:35:59;;;;;;;17.25;6.28;;;;;;;-141.50;100.00;63355.56;5037500;28;20053;-83
2022/01/16 11:38:31;;;;;;;15.45;6.88;;;;;;;-141.50;100.00;63355.56;5034823;28;20061;-82
2022/01/16 11:41:12;;;;;;;16.42;7.03;;;;;;;-141.50;100.00;63355.56;5034237;28;20060;-84
2022/01/16 11:43:41;;;;;;;14.40;6.90;;;;;;;-141.50;100.00;63355.56;5034435;28;20049;-80
2022/01/16 11:46:10;;;;;;;16.80;7.47;;;;;;;-141.50;100.00;63355.56;5039250;28;20044;-83
2022/01/16 11:48:38;;;;;;;17.00;7.70;;;;;;;-141.50;100.00;63355.56;5036957;28;20083;-82
2022/01/16 11:54:07;;;;;;;18.08;7.25;;;;;;;-141.50;100.00;63355.56;5015608;28;20145;-83
2022/01/16 11:56:42;;;;;;;20.20;8.50;;;;;;;-141.50;100.00;63355.56;5015907;28;20058;-82
2022/01/16 11:59:19;;;;;;;17.35;7.82;;;;;;;-141.50;100.00;63355.56;4994270;28;20050;-84
2022/01/16 12:01:51;;;;;;;20.58;8.35;;;;;;;-141.50;100.00;63355.56;5015146;28;20112;-83